Time;durP1;ratioP1;P1;durP2;ratioP2;P2;SDS_P1;SDS_P2;PMS_P1;PMS_P2;Temp;Humidity;BMP_temperature;BMP_pressure;BME280_temperature;BME280_humidity;BME280_pressure;Samples;Min_cycle;Max_cycle;Signal;HPM_P1;HPM_P2
2022/06/16 00:01:49;;;;;;;7.35;3.15;;;;;;;20.70;40.58;101805.56;4903306;28;123777;-65
2022/06/16 00:04:17;;;;;;;5.70;3.28;;;;;;;20.67;40.85;101800.41;4903012;28;124616;-64
2022/06/16 00:06:44;;;;;;;4.80;2.85;;;;;;;20.66;40.89;101820.19;4895472;28;114618;-63
2022/06/16 00:09:11;;;;;;;5.18;2.90;;;;;;;20.63;40.94;101815.06;4898980;28;112976;-63
2022/06/16 00:11:39;;;;;;;3.95;2.80;;;;;;;20.61;40.89;101811.63;4901812;28;124128;-64
2022/06/16 00:14:07;;;;;;;7.47;3.28;;;;;;;20.58;40.81;101809.09;4905708;28;124275;-65
2022/06/16 00:16:34;;;;;;;6.40;3.15;;;;;;;20.58;41.13;101817.19;4907041;28;114009;-65
2022/06/16 00:19:02;;;;;;;5.88;3.10;;;;;;;20.56;40.99;101813.75;4898345;28;114435;-65
2022/06/16 00:21:29;;;;;;;6.85;3.03;;;;;;;20.53;41.11;101808.56;4901571;28;123911;-66
2022/06/16 00:23:56;;;;;;;4.93;3.00;;;;;;;20.50;41.00;101803.44;4899376;28;123382;-66
2022/06/16 00:26:25;;;;;;;5.85;3.08;;;;;;;20.47;41.27;101809.00;4897920;28;114712;-66
2022/06/16 00:28:53;;;;;;;6.03;2.90;;;;;;;20.45;40.79;101809.13;4900364;28;114173;-66
2022/06/16 00:31:23;;;;;;;5.55;3.00;;;;;;;20.41;41.12;101800.41;4909967;28;123654;-66
2022/06/16 00:33:51;;;;;;;3.60;2.85;;;;;;;20.39;41.11;101802.34;4904678;28;124661;-65
2022/06/16 00:36:19;;;;;;;7.15;3.17;;;;;;;20.40;41.15;101808.59;4890052;28;114231;-65
2022/06/16 00:38:46;;;;;;;4.07;3.00;;;;;;;20.40;41.25;101806.78;4896155;28;112892;-66
2022/06/16 00:41:14;;;;;;;5.80;3.20;;;;;;;20.38;41.28;101808.72;4924897;28;123091;-65
2022/06/16 00:43:42;;;;;;;7.50;3.63;;;;;;;20.38;41.19;101808.72;4914909;28;122605;-65
2022/06/16 00:46:15;;;;;;;6.35;3.05;;;;;;;20.36;41.14;101813.34;4897687;28;115419;-65
2022/06/16 00:48:49;;;;;;;5.15;3.15;;;;;;;20.34;41.38;101803.66;4898131;28;115517;-65
2022/06/16 00:51:21;;;;;;;4.25;2.97;;;;;;;20.31;41.30;101810.13;4894562;28;124113;-65
2022/06/16 00:53:49;;;;;;;6.57;3.05;;;;;;;20.30;41.41;101813.75;4901612;28;124636;-64
2022/06/16 00:56:18;;;;;;;5.28;3.53;;;;;;;20.30;41.33;101819.13;4924778;28;113381;-64
2022/06/16 00:58:57;;;;;;;5.93;3.30;;;;;;;20.27;41.57;101827.44;4905869;28;114096;-64
2022/06/16 01:01:25;;;;;;;5.80;3.60;;;;;;;20.26;41.55;101828.41;4911754;28;123268;-64
2022/06/16 01:06:43;;;;;;;5.22;3.40;;;;;;;20.18;41.56;101836.16;4903015;28;112827;-65
2022/06/16 01:09:14;;;;;;;5.63;3.20;;;;;;;20.14;41.62;101829.28;4900604;28;114042;-65
2022/06/16 01:14:49;;;;;;;4.82;3.30;;;;;;;20.02;41.74;101829.16;4900039;28;124141;-65
2022/06/16 01:17:48;;;;;;;6.95;3.72;;;;;;;19.97;41.69;101823.22;4921466;28;113527;-65
2022/06/16 01:20:38;;;;;;;5.63;3.33;;;;;;;19.90;41.50;101821.94;4924588;28;113545;-65
2022/06/16 01:23:41;;;;;;;6.20;3.58;;;;;;;19.84;41.72;101833.13;4912125;28;122195;-65
2022/06/16 01:26:18;;;;;;;4.03;3.17;;;;;;;19.74;41.81;101829.31;4868058;28;123850;-64
2022/06/16 01:29:01;;;;;;;4.45;3.22;;;;;;;19.69;41.92;101839.50;4918123;28;113491;-65
2022/06/16 01:31:34;;;;;;;5.38;3.42;;;;;;;19.64;42.04;101843.34;4890160;28;112883;-65
2022/06/16 01:34:26;;;;;;;7.35;3.60;;;;;;;19.59;42.38;101856.25;4907290;28;122881;-66
2022/06/16 01:37:16;;;;;;;6.47;3.80;;;;;;;19.56;42.10;101851.06;4899796;28;123585;-66
2022/06/16 01:40:05;;;;;;;6.68;3.60;;;;;;;19.50;42.08;101856.88;4908342;28;114604;-67
2022/06/16 01:42:40;;;;;;;4.82;4.00;;;;;;;19.47;42.34;101857.06;4910458;28;114920;-64
2022/06/16 01:45:16;;;;;;;7.68;4.10;;;;;;;19.44;42.34;101862.66;4902586;28;123636;-67
2022/06/16 01:47:49;;;;;;;6.60;3.92;;;;;;;19.41;42.68;101857.47;4907128;28;123689;-67
2022/06/16 01:50:33;;;;;;;6.20;4.05;;;;;;;19.40;42.64;101861.09;4908303;28;116754;-66
2022/06/16 01:53:06;;;;;;;8.70;4.10;;;;;;;19.37;42.80;101861.31;4909872;28;113173;-64
2022/06/16 01:55:39;;;;;;;7.90;3.90;;;;;;;19.34;42.83;101853.47;4927204;28;122888;-67
2022/06/16 01:58:20;;;;;;;8.27;4.15;;;;;;;19.29;42.81;101853.78;4922521;28;126699;-66
2022/06/16 02:00:54;;;;;;;5.03;3.70;;;;;;;19.24;42.66;101856.75;4909579;28;113530;-66
2022/06/16 02:03:31;;;;;;;7.43;3.85;;;;;;;19.21;42.84;101851.59;4928165;28;112951;-66
2022/06/16 02:06:08;;;;;;;4.43;3.50;;;;;;;19.18;42.75;101854.47;4910550;28;126693;-66
2022/06/16 02:08:44;;;;;;;6.47;4.03;;;;;;;19.14;42.94;101850.28;4897088;28;123971;-66
2022/06/16 02:11:10;;;;;;;;;;;;;;;19.04;41.89;101852.69;4909821;28;113945;-68
2022/06/16 02:13:50;;;;;;;5.90;4.05;;;;;;;19.01;42.80;101849.34;4904929;28;114225;-66
2022/06/16 02:16:23;;;;;;;6.25;3.92;;;;;;;18.94;42.97;101853.38;4908245;28;123751;-66
2022/06/16 02:18:52;;;;;;;5.78;4.32;;;;;;;18.87;43.12;101847.53;4906973;28;123089;-66
2022/06/16 02:21:41;;;;;;;7.68;4.45;;;;;;;18.80;43.10;101852.44;4907692;28;113726;-66
2022/06/16 02:24:13;;;;;;;6.70;4.47;;;;;;;18.76;43.54;101850.88;4919869;28;113179;-66
2022/06/16 02:26:41;;;;;;;5.47;3.78;;;;;;;18.71;43.36;101847.63;4899325;28;123981;-68
2022/06/16 02:29:34;;;;;;;5.50;4.15;;;;;;;18.66;43.47;101849.72;4895297;28;123083;-67
2022/06/16 02:32:11;;;;;;;5.75;3.67;;;;;;;18.64;43.35;101859.69;4903601;28;114208;-67
2022/06/16 02:34:55;;;;;;;7.10;4.07;;;;;;;18.61;43.67;101857.19;4924585;28;114219;-68
2022/06/16 02:37:31;;;;;;;7.25;4.10;;;;;;;18.58;43.55;101863.63;4897917;28;124094;-68
2022/06/16 02:40:17;;;;;;;7.53;4.00;;;;;;;18.57;43.49;101877.13;4909053;28;123050;-67
2022/06/16 02:42:51;;;;;;;9.13;4.05;;;;;;;18.51;43.69;101877.53;4909566;28;113175;-67
2022/06/16 02:46:00;;;;;;;6.60;4.40;;;;;;;18.42;43.69;101879.84;4908736;28;112968;-68
2022/06/16 02:48:42;;;;;;;8.52;4.25;;;;;;;18.35;43.81;101889.22;4908815;28;123388;-68
2022/06/16 02:51:43;;;;;;;6.68;4.22;;;;;;;18.25;43.94;101888.03;4909981;28;122890;-68
2022/06/16 02:54:23;;;;;;;6.38;4.20;;;;;;;18.22;44.04;101898.97;4908499;28;113389;-67
2022/06/16 02:57:06;;;;;;;6.53;4.30;;;;;;;18.19;44.09;101910.72;4900658;28;113553;-68
2022/06/16 02:59:36;;;;;;;6.20;4.32;;;;;;;18.17;44.21;101906.41;4905717;28;123241;-68
2022/06/16 03:02:12;;;;;;;6.40;4.35;;;;;;;18.16;44.45;101904.66;4924494;28;123945;-68
2022/06/16 03:04:44;;;;;;;7.47;4.43;;;;;;;18.15;44.37;101903.81;4907910;28;113578;-67
2022/06/16 03:07:14;;;;;;;7.90;4.30;;;;;;;18.14;44.38;101901.22;4898597;28;114684;-67
2022/06/16 03:09:41;;;;;;;6.82;4.70;;;;;;;18.12;44.48;101903.13;4898435;28;123248;-68
2022/06/16 03:12:10;;;;;;;8.40;4.50;;;;;;;18.09;44.36;101907.72;4925473;28;123289;-67
2022/06/16 03:14:40;;;;;;;7.03;4.95;;;;;;;18.05;44.45;101914.22;4907634;28;113469;-67
2022/06/16 03:17:08;;;;;;;7.50;4.45;;;;;;;18.02;44.38;101914.41;4926778;28;113235;-67
2022/06/16 03:19:37;;;;;;;6.45;4.25;;;;;;;17.98;44.76;101923.59;4924218;28;123165;-66
2022/06/16 03:22:05;;;;;;;6.43;4.22;;;;;;;17.95;44.72;101921.09;4904006;28;124139;-67
2022/06/16 03:24:33;;;;;;;6.60;4.68;;;;;;;17.89;44.81;101929.47;4904968;28;114474;-67
2022/06/16 03:27:01;;;;;;;8.15;4.70;;;;;;;17.83;44.76;101935.19;4900736;28;115136;-67
2022/06/16 03:29:34;;;;;;;7.28;4.35;;;;;;;17.77;44.75;101924.81;4905861;28;123256;-68
2022/06/16 03:32:03;;;;;;;7.50;4.35;;;;;;;17.74;45.01;101925.00;4908793;28;123126;-67
2022/06/16 03:34:30;;;;;;;6.40;4.30;;;;;;;17.70;45.12;101919.78;4924609;28;113288;-67
2022/06/16 03:37:00;;;;;;;6.32;4.47;;;;;;;17.68;45.18;101916.34;4904088;28;113125;-67
2022/06/16 03:39:38;;;;;;;10.43;4.88;;;;;;;17.65;45.17;101921.91;4900424;28;124319;-67
2022/06/16 03:42:06;;;;;;;6.75;4.32;;;;;;;17.62;45.10;101916.72;4907730;28;125465;-67
2022/06/16 03:44:34;;;;;;;7.07;4.35;;;;;;;17.58;45.38;101920.53;4898719;28;113174;-67
2022/06/16 03:47:02;;;;;;;7.32;4.85;;;;;;;17.54;45.36;101924.31;4927459;28;113241;-67
2022/06/16 03:49:38;;;;;;;7.70;4.78;;;;;;;17.51;45.47;101919.13;4904422;28;127322;-67
2022/06/16 03:52:05;;;;;;;6.32;4.40;;;;;;;17.50;45.70;101928.16;4900926;28;124050;-66
2022/06/16 03:54:35;;;;;;;7.05;4.45;;;;;;;17.49;45.70;101942.47;4924269;28;113543;-66
2022/06/16 03:57:07;;;;;;;7.40;4.97;;;;;;;17.47;45.64;101949.72;4906322;28;113657;-66
2022/06/16 03:59:35;;;;;;;8.88;5.10;;;;;;;17.44;45.89;101952.56;4904997;28;123732;-66
2022/06/16 04:02:12;;;;;;;13.50;4.95;;;;;;;17.44;45.86;101957.94;4900083;28;123332;-66
2022/06/16 04:04:41;;;;;;;6.70;4.57;;;;;;;17.42;46.08;101958.03;4896779;28;113591;-66
2022/06/16 04:07:10;;;;;;;8.40;4.80;;;;;;;17.43;46.09;101957.06;4912046;28;113231;-66
2022/06/16 04:09:49;;;;;;;7.80;4.97;;;;;;;17.44;45.94;101963.28;4911626;28;125662;-66
2022/06/16 04:12:17;;;;;;;8.57;4.70;;;;;;;17.46;46.21;101964.06;4903784;28;124189;-66
2022/06/16 04:14:44;;;;;;;8.10;4.60;;;;;;;17.46;46.25;101964.06;4906724;28;114296;-66
2022/06/16 04:17:12;;;;;;;6.45;3.88;;;;;;;17.46;46.10;101970.31;4906055;28;114006;-66
2022/06/16 04:20:11;;;;;;;7.10;4.20;;;;;;;17.46;46.22;101969.41;4907946;28;123880;-66
2022/06/16 04:23:05;;;;;;;6.30;4.35;;;;;;;17.45;46.22;101970.38;4907402;28;124541;-66
2022/06/16 04:25:33;;;;;;;8.82;4.40;;;;;;;17.47;46.40;101971.16;4909237;28;113388;-66
2022/06/16 04:28:07;;;;;;;5.68;4.53;;;;;;;17.48;46.39;101972.91;4904659;28;113478;-66
2022/06/16 04:30:41;;;;;;;7.60;4.50;;;;;;;17.51;46.38;101972.72;4911047;28;126908;-66
2022/06/16 04:33:09;;;;;;;7.47;4.85;;;;;;;17.53;46.42;101981.53;4913326;28;123937;-66
2022/06/16 04:35:36;;;;;;;7.85;4.40;;;;;;;17.55;46.46;101982.28;4909183;28;113717;-66
2022/06/16 04:38:05;;;;;;;7.65;4.47;;;;;;;17.54;46.47;101983.25;4916651;28;113245;-66
2022/06/16 04:40:35;;;;;;;8.20;4.40;;;;;;;17.55;46.48;101974.25;4912276;28;124308;-66
2022/06/16 04:43:15;;;;;;;7.72;4.72;;;;;;;17.58;46.66;101983.97;4913780;28;123230;-68
2022/06/16 04:45:55;;;;;;;8.93;4.50;;;;;;;17.65;46.58;101986.19;4908553;28;114322;-67
2022/06/16 04:48:27;;;;;;;7.63;3.97;;;;;;;17.75;46.83;101986.53;4900401;28;113110;-68
2022/06/16 04:50:56;;;;;;;7.97;4.28;;;;;;;17.89;46.82;101996.47;4924146;28;123164;-68
2022/06/16 04:53:26;;;;;;;9.45;4.13;;;;;;;18.03;46.67;101991.19;4914736;28;123593;-67
2022/06/16 04:56:08;;;;;;;6.55;4.13;;;;;;;18.21;46.68;102004.47;4916492;28;112725;-68
2022/06/16 04:58:45;;;;;;;6.95;3.83;;;;;;;18.38;46.41;101993.59;4914057;28;113141;-68
2022/06/16 05:01:31;;;;;;;4.53;3.45;;;;;;;18.57;46.09;102000.56;4914028;28;125229;-66
2022/06/16 05:04:24;;;;;;;6.43;4.00;;;;;;;18.75;45.78;101998.59;4900098;28;124350;-66
2022/06/16 05:07:07;;;;;;;6.38;3.90;;;;;;;18.88;45.37;102004.09;4902418;28;114508;-66
2022/06/16 05:09:46;;;;;;;7.05;3.78;;;;;;;18.96;45.01;102001.81;4909117;28;117580;-67
2022/06/16 05:12:32;;;;;;;6.30;3.80;;;;;;;19.04;44.91;102004.88;4915104;28;124486;-69
2022/06/16 05:15:14;;;;;;;5.82;3.60;;;;;;;19.10;44.83;102004.50;4914043;28;125577;-68
2022/06/16 05:17:59;;;;;;;9.25;3.80;;;;;;;19.14;44.58;102014.09;4913830;28;115088;-67
2022/06/16 05:20:41;;;;;;;8.45;3.60;;;;;;;19.18;44.34;102018.31;4903937;28;114708;-68
2022/06/16 05:23:13;;;;;;;6.75;3.35;;;;;;;19.20;44.38;102026.28;4913884;28;124537;-68
2022/06/16 05:25:58;;;;;;;6.65;3.15;;;;;;;19.24;44.27;102028.66;4907008;28;124742;-67
2022/06/16 05:28:36;;;;;;;5.38;3.33;;;;;;;19.32;44.20;102035.38;4910363;28;116035;-67
2022/06/16 05:31:13;;;;;;;6.90;3.67;;;;;;;19.37;44.30;102038.66;4915822;28;116094;-67
2022/06/16 05:34:13;;;;;;;7.80;3.50;;;;;;;19.43;44.19;102043.63;4884898;28;124832;-67
2022/06/16 05:37:05;;;;;;;9.68;3.15;;;;;;;19.49;43.95;102053.97;4911291;28;123046;-67
2022/06/16 05:39:34;;;;;;;11.10;3.83;;;;;;;19.54;43.71;102046.47;4914273;28;114659;-67
2022/06/16 05:42:12;;;;;;;7.10;3.45;;;;;;;19.61;43.57;102058.56;4906283;28;113541;-66
2022/06/16 05:45:04;;;;;;;10.23;3.25;;;;;;;19.70;43.76;102050.88;4895001;28;123638;-67
2022/06/16 05:47:53;;;;;;;4.55;3.13;;;;;;;19.79;43.38;102050.31;4901506;28;124475;-67
2022/06/16 05:50:22;;;;;;;5.60;2.78;;;;;;;19.86;43.20;102057.03;4909058;28;113641;-67
2022/06/16 05:52:52;;;;;;;5.28;2.70;;;;;;;19.90;42.98;102053.16;4912903;28;112768;-67
2022/06/16 05:55:26;;;;;;;4.67;2.47;;;;;;;19.97;42.72;102065.25;4924132;28;123633;-67
2022/06/16 05:57:53;;;;;;;6.30;2.90;;;;;;;20.03;42.63;102062.16;4911504;28;123573;-67
2022/06/16 06:00:21;;;;;;;4.43;2.38;;;;;;;20.12;42.46;102057.16;4911053;28;116034;-67
2022/06/16 06:02:57;;;;;;;6.20;2.60;;;;;;;20.19;42.52;102066.50;4915374;28;115198;-67
2022/06/16 06:05:29;;;;;;;4.83;2.43;;;;;;;20.28;42.54;102057.84;4913233;28;123155;-67
2022/06/16 06:19:24;;;;;;;5.22;2.33;;;;;;;20.79;41.23;102074.16;4899387;28;122904;-67
2022/06/16 06:22:02;;;;;;;5.38;2.20;;;;;;;20.88;41.13;102069.09;4911672;28;116617;-65
2022/06/16 06:24:34;;;;;;;4.43;2.33;;;;;;;20.99;41.27;102071.91;4906265;28;113077;-67
2022/06/16 06:27:25;;;;;;;3.10;1.88;;;;;;;21.11;41.24;102068.34;4927902;28;126524;-67
2022/06/16 06:29:52;;;;;;;3.47;1.95;;;;;;;21.23;40.63;102071.16;4906506;28;123270;-67
2022/06/16 06:32:22;;;;;;;4.28;2.20;;;;;;;21.31;40.46;102066.09;4915412;28;114405;-67
2022/06/16 06:34:51;;;;;;;3.10;1.50;;;;;;;21.36;40.00;102066.59;4912613;28;113152;-67
2022/06/16 06:37:21;;;;;;;3.78;1.92;;;;;;;21.40;39.45;102073.53;4915630;28;123564;-67
2022/06/16 06:39:49;;;;;;;3.58;1.70;;;;;;;21.43;39.01;102070.59;4911371;28;123093;-67
2022/06/16 06:42:18;;;;;;;5.63;2.22;;;;;;;21.48;39.58;102071.16;4911908;28;113437;-66
2022/06/16 06:44:45;;;;;;;4.50;1.90;;;;;;;21.57;39.29;102075.91;4914494;28;114837;-66
2022/06/16 06:47:25;;;;;;;6.78;2.17;;;;;;;21.63;39.07;102073.75;4910559;28;124774;-66
2022/06/16 06:49:53;;;;;;;4.75;1.95;;;;;;;21.67;39.14;102080.63;4911214;28;124686;-66
2022/06/16 06:52:21;;;;;;;4.25;1.88;;;;;;;21.70;38.78;102069.59;4910529;28;115226;-67
2022/06/16 06:54:49;;;;;;;3.28;1.70;;;;;;;21.71;38.44;102071.34;4902414;28;114945;-66
2022/06/16 06:57:20;;;;;;;2.78;1.80;;;;;;;21.73;38.46;102080.19;4906851;28;123832;-66
2022/06/16 06:59:48;;;;;;;4.07;1.75;;;;;;;21.77;38.73;102087.06;4912446;28;124332;-66
2022/06/16 07:02:15;;;;;;;2.97;1.73;;;;;;;21.85;38.83;102095.47;4912791;28;114185;-67
2022/06/16 07:04:44;;;;;;;3.25;1.77;;;;;;;21.97;38.87;102091.88;4927991;28;113867;-67
2022/06/16 07:07:16;;;;;;;4.60;1.60;;;;;;;22.10;38.37;102094.53;4898253;28;124576;-66
2022/06/16 07:09:44;;;;;;;3.03;1.50;;;;;;;22.21;38.22;102098.25;4899262;28;123675;-66
2022/06/16 07:12:15;;;;;;;3.22;1.52;;;;;;;22.34;38.78;102110.75;4911509;28;114429;-66
2022/06/16 07:14:46;;;;;;;3.38;1.50;;;;;;;22.50;38.08;102120.41;4912377;28;113894;-67
2022/06/16 07:17:17;;;;;;;3.58;1.40;;;;;;;22.60;37.87;102118.72;4910442;28;124170;-67
2022/06/16 07:19:44;;;;;;;2.65;1.30;;;;;;;22.71;37.79;102126.88;4911479;28;123869;-66
2022/06/16 07:22:12;;;;;;;2.60;1.35;;;;;;;22.81;37.33;102120.75;4909729;28;114265;-67
2022/06/16 07:24:39;;;;;;;3.53;1.30;;;;;;;22.89;37.38;102134.56;4911125;28;113682;-67
2022/06/16 07:27:07;;;;;;;4.50;1.38;;;;;;;22.98;37.24;102128.44;4901758;28;124623;-66
2022/06/16 07:29:35;;;;;;;4.80;1.65;;;;;;;23.06;37.02;102134.16;4893885;28;123872;-67
2022/06/16 07:32:10;;;;;;;2.38;1.10;;;;;;;23.17;36.64;102132.44;4912879;28;113433;-66
2022/06/16 07:34:39;;;;;;;1.90;1.20;;;;;;;23.26;36.36;102139.81;4924214;28;114450;-66
2022/06/16 07:37:06;;;;;;;2.42;1.20;;;;;;;23.32;36.09;102136.66;4899391;28;123998;-67
2022/06/16 07:39:33;;;;;;;2.80;1.25;;;;;;;23.36;35.87;102138.13;4911556;28;124021;-67
2022/06/16 07:42:00;;;;;;;3.05;1.38;;;;;;;23.41;35.64;102141.31;4912099;28;114790;-66
2022/06/16 07:44:27;;;;;;;3.70;1.40;;;;;;;23.45;35.32;102145.53;4899015;28;115620;-66
2022/06/16 07:46:55;;;;;;;2.22;1.30;;;;;;;23.47;35.31;102140.84;4911101;28;124131;-65
2022/06/16 07:49:26;;;;;;;6.78;1.67;;;;;;;23.50;35.31;102151.41;4910670;28;123742;-66
2022/06/16 07:51:55;;;;;;;3.25;1.30;;;;;;;23.54;35.31;102156.59;4907503;28;114310;-67
2022/06/16 07:54:23;;;;;;;4.40;1.40;;;;;;;23.58;35.29;102166.16;4911823;28;114089;-66
2022/06/16 07:57:11;;;;;;;3.67;1.42;;;;;;;23.64;35.29;102173.78;4912538;28;124020;-66
2022/06/16 07:59:50;;;;;;;2.75;1.50;;;;;;;23.69;35.38;102166.19;4901257;28;123737;-66
2022/06/16 08:02:17;;;;;;;3.78;1.40;;;;;;;23.74;35.36;102163.97;4911343;28;114343;-67
2022/06/16 08:04:46;;;;;;;2.20;1.40;;;;;;;23.82;34.70;102161.53;4909573;28;113847;-66
2022/06/16 08:07:13;;;;;;;2.45;1.40;;;;;;;23.86;35.21;102163.00;4898179;28;123990;-66
2022/06/16 08:09:41;;;;;;;5.18;1.40;;;;;;;23.93;34.82;102157.13;4910809;28;124609;-66
2022/06/16 08:12:10;;;;;;;2.55;1.35;;;;;;;23.98;34.77;102163.00;4910648;28;114564;-66
2022/06/16 08:14:41;;;;;;;3.85;1.60;;;;;;;24.03;34.45;102158.06;4927473;28;114356;-66
2022/06/16 08:17:13;;;;;;;2.58;1.50;;;;;;;24.10;34.39;102167.41;4910135;28;123900;-67
2022/06/16 08:19:41;;;;;;;2.00;1.10;;;;;;;24.16;34.94;102169.63;4910847;28;123986;-66
2022/06/16 08:22:08;;;;;;;2.00;1.10;;;;;;;24.26;34.78;102170.59;4909534;28;115115;-67
2022/06/16 08:24:36;;;;;;;2.58;1.20;;;;;;;24.36;34.93;102169.84;4906361;28;114229;-67
2022/06/16 08:27:03;;;;;;;2.78;1.20;;;;;;;24.49;35.17;102170.53;4882003;28;122991;-67
2022/06/16 08:29:32;;;;;;;2.25;1.17;;;;;;;24.64;35.24;102174.72;4893049;28;124673;-67
2022/06/16 08:31:59;;;;;;;3.45;1.10;;;;;;;24.75;34.33;102176.53;4909810;28;115173;-67
2022/06/16 08:34:26;;;;;;;2.10;1.10;;;;;;;24.80;34.22;102173.41;4912016;28;114958;-67
2022/06/16 08:36:53;;;;;;;2.83;1.30;;;;;;;24.82;33.72;102177.69;4910074;28;124198;-67
2022/06/16 08:39:21;;;;;;;3.58;1.40;;;;;;;24.83;33.88;102184.00;4911716;28;124463;-67
2022/06/16 08:41:51;;;;;;;2.28;1.20;;;;;;;24.87;34.06;102185.44;4910331;28;114728;-66
2022/06/16 08:44:33;;;;;;;3.72;1.40;;;;;;;24.94;34.21;102192.09;4899503;28;113999;-66
2022/06/16 08:47:19;;;;;;;3.38;1.40;;;;;;;25.00;33.52;102180.69;4909465;28;124257;-66
2022/06/16 08:50:29;;;;;;;5.65;1.60;;;;;;;25.03;33.25;102191.31;4909715;28;124570;-66
2022/06/16 08:53:06;;;;;;;3.33;1.38;;;;;;;25.03;33.21;102191.31;4911683;28;113779;-67
2022/06/16 08:55:57;;;;;;;5.13;1.23;;;;;;;25.06;33.56;102185.59;4911780;28;114001;-67
2022/06/16 08:58:39;;;;;;;5.05;1.30;;;;;;;25.12;33.13;102189.63;4908850;28;123846;-67
2022/06/16 09:01:16;;;;;;;3.85;1.25;;;;;;;25.15;32.99;102177.69;4897612;28;123761;-67
2022/06/16 09:03:48;;;;;;;3.72;1.50;;;;;;;25.20;33.73;102170.00;4897879;28;114786;-66
2022/06/16 09:06:39;;;;;;;3.42;1.67;;;;;;;25.31;33.78;102172.66;4911910;28;113748;-67
2022/06/16 09:12:46;;;;;;;2.03;1.23;;;;;;;25.48;33.18;102167.63;4911796;28;124001;-66
2022/06/16 09:15:24;;;;;;;5.95;1.65;;;;;;;25.55;33.26;102174.25;4917607;28;113204;-67
2022/06/16 09:17:58;;;;;;;3.28;1.83;;;;;;;25.62;32.38;102175.41;4909172;28;114026;-67
2022/06/16 09:21:13;;;;;;;4.25;1.73;;;;;;;25.64;32.65;102184.28;4913637;28;124017;-67
2022/06/16 09:24:08;;;;;;;3.08;1.50;;;;;;;25.68;32.93;102185.72;4884123;28;123881;-67
2022/06/16 09:26:43;;;;;;;3.83;1.60;;;;;;;25.73;33.11;102199.75;4911733;28;115331;-67
2022/06/16 09:29:14;;;;;;;;;;;;;;;25.76;33.41;102194.03;4915285;28;114890;-67
2022/06/16 09:31:52;;;;;;;2.13;1.38;;;;;;;25.87;33.14;102194.97;4914564;28;124490;-67
2022/06/16 09:34:27;;;;;;;3.15;1.45;;;;;;;26.00;33.29;102196.47;4916785;28;96734;-67
2022/06/16 09:37:02;;;;;;;3.72;1.67;;;;;;;26.07;32.46;102207.66;4929708;28;114287;-67
2022/06/16 09:39:35;;;;;;;2.67;1.67;;;;;;;26.06;32.23;102214.06;4913095;28;114134;-67
2022/06/16 09:42:35;;;;;;;3.40;1.70;;;;;;;26.06;32.59;102210.50;4907093;28;124413;-67
2022/06/16 09:45:19;;;;;;;4.07;1.70;;;;;;;26.13;33.26;102212.53;4911234;28;124699;-67
2022/06/16 09:47:53;;;;;;;3.88;1.83;;;;;;;26.25;32.84;102215.13;4908959;28;114307;-67
2022/06/16 09:50:36;;;;;;;4.70;1.65;;;;;;;26.37;33.27;102224.88;4915000;28;113960;-67
2022/06/16 09:53:09;;;;;;;4.50;1.80;;;;;;;26.51;32.95;102221.75;4909974;28;124711;-67
2022/06/16 09:55:47;;;;;;;3.80;1.70;;;;;;;26.61;32.03;102217.22;4908644;28;123962;-66
2022/06/16 09:58:22;;;;;;;8.80;2.00;;;;;;;26.64;32.17;102220.69;4905190;28;114373;-67
2022/06/16 10:00:53;;;;;;;2.80;1.70;;;;;;;26.67;32.31;102223.94;4906850;28;112760;-66
2022/06/16 10:03:34;;;;;;;4.65;1.50;;;;;;;26.72;32.40;102228.97;4906467;28;124000;-66
2022/06/16 10:06:28;;;;;;;5.72;1.73;;;;;;;26.75;32.01;102220.56;4913636;28;124233;-67
2022/06/16 10:09:44;;;;;;;3.75;1.80;;;;;;;26.81;32.33;102206.38;4904357;28;114668;-68
2022/06/16 10:12:32;;;;;;;4.55;1.73;;;;;;;26.86;31.85;102214.97;4908545;28;113830;-68
2022/06/16 10:15:22;;;;;;;3.92;1.98;;;;;;;26.90;31.65;102220.97;4912035;28;124725;-66
2022/06/16 10:17:51;;;;;;;3.13;1.60;;;;;;;26.93;31.46;102209.81;4910072;28;124275;-68
2022/06/16 10:20:21;;;;;;;2.60;1.77;;;;;;;26.99;30.92;102215.53;4906075;28;115510;-66
2022/06/16 10:22:57;;;;;;;2.95;1.77;;;;;;;27.00;30.92;102214.53;4926780;28;115347;-68
2022/06/16 10:25:28;;;;;;;4.10;1.70;;;;;;;26.99;30.81;102218.28;4908693;28;123775;-66
2022/06/16 10:28:44;;;;;;;5.72;1.70;;;;;;;26.99;31.46;102225.53;4852183;29;125005;-73
2022/06/16 10:31:51;;;;;;;4.22;1.60;;;;;;;27.04;31.53;102227.84;4833936;29;113614;-66
2022/06/16 10:34:25;;;;;;;4.18;1.60;;;;;;;27.11;31.42;102223.56;4810098;29;113855;-67
2022/06/16 10:37:06;;;;;;;4.15;1.67;;;;;;;27.16;31.67;102221.25;4844620;29;124707;-67
2022/06/16 10:39:43;;;;;;;3.13;1.85;;;;;;;27.22;31.41;102220.69;4832632;29;123422;-67
2022/06/16 10:42:20;;;;;;;3.13;1.80;;;;;;;27.28;31.07;102214.69;4847017;29;114113;-67
2022/06/16 10:44:52;;;;;;;3.97;1.83;;;;;;;27.28;31.28;102203.81;4835318;29;113924;-67
2022/06/16 10:47:25;;;;;;;3.83;2.05;;;;;;;27.28;30.46;102209.25;4898719;28;124139;-67
2022/06/16 10:49:52;;;;;;;4.85;1.60;;;;;;;27.29;31.00;102210.94;4907631;28;123778;-67
2022/06/16 10:52:28;;;;;;;4.72;1.80;;;;;;;27.33;30.57;102217.84;4901500;28;113296;-68
2022/06/16 10:55:20;;;;;;;4.47;1.92;;;;;;;27.35;30.86;102199.50;4908688;28;113230;-68
2022/06/16 10:58:01;;;;;;;3.22;2.05;;;;;;;27.43;31.75;102211.53;4902559;28;123925;-68
2022/06/16 11:00:32;;;;;;;2.53;1.80;;;;;;;27.54;31.82;102212.19;4899202;28;124362;-68
2022/06/16 11:03:17;;;;;;;4.80;1.92;;;;;;;27.63;31.42;102210.44;4907817;28;113337;-67
2022/06/16 11:05:54;;;;;;;3.35;1.60;;;;;;;27.67;31.52;102216.44;4901659;28;114538;-67
2022/06/16 11:08:24;;;;;;;5.43;2.00;;;;;;;27.72;31.10;102215.00;4910643;28;124823;-67
2022/06/16 11:11:11;;;;;;;4.72;1.77;;;;;;;27.78;30.26;102219.00;4913787;28;123693;-66
2022/06/16 11:13:48;;;;;;;3.15;1.52;;;;;;;27.79;30.71;102217.16;4903930;28;115200;-66
2022/06/16 11:16:33;;;;;;;2.78;1.63;;;;;;;27.84;30.59;102214.81;4910550;28;115334;-67
2022/06/16 11:19:06;;;;;;;3.72;1.65;;;;;;;27.91;30.63;102218.69;4901172;28;123174;-66
2022/06/16 11:21:33;;;;;;;4.88;1.77;;;;;;;27.97;30.48;102209.91;4910789;28;123908;-66
2022/06/16 11:24:06;;;;;;;3.58;1.70;;;;;;;28.01;30.33;102216.78;4913753;28;114387;-67
2022/06/16 11:26:41;;;;;;;4.85;2.03;;;;;;;28.02;30.45;102218.50;4911055;28;114080;-66
2022/06/16 11:29:11;;;;;;;3.38;1.60;;;;;;;27.99;30.13;102228.84;4911322;28;124876;-66
2022/06/16 11:31:46;;;;;;;4.35;1.75;;;;;;;27.98;30.03;102222.53;4914109;28;124307;-66
2022/06/16 11:34:17;;;;;;;4.00;1.67;;;;;;;28.00;30.00;102233.28;4916497;28;113368;-66
2022/06/16 11:37:01;;;;;;;3.30;1.83;;;;;;;28.01;30.07;102222.25;4908668;28;113915;-66
2022/06/16 11:40:00;;;;;;;3.35;1.63;;;;;;;28.06;29.93;102219.91;4910248;28;124329;-66
2022/06/16 11:43:00;;;;;;;4.78;1.90;;;;;;;28.09;30.38;102208.72;4893213;28;123026;-67
2022/06/16 11:45:40;;;;;;;3.70;1.75;;;;;;;28.16;30.25;102222.56;4898185;28;114437;-66
2022/06/16 11:48:30;;;;;;;3.15;1.85;;;;;;;28.21;30.56;102216.69;4909082;28;114332;-67
2022/06/16 11:51:14;;;;;;;3.33;1.65;;;;;;;28.29;30.99;102219.50;4910301;28;124098;-67
2022/06/16 11:54:10;;;;;;;5.55;1.80;;;;;;;28.39;30.30;102220.31;4897620;28;125560;-67
2022/06/16 11:56:42;;;;;;;3.45;1.80;;;;;;;28.42;29.98;102220.00;4910767;28;114066;-67
2022/06/16 11:59:38;;;;;;;4.05;1.65;;;;;;;28.43;29.66;102208.09;4897428;28;114302;-67
2022/06/16 12:02:46;;;;;;;7.05;1.90;;;;;;;28.44;29.62;102209.78;4860428;28;123752;-66
2022/06/16 12:05:19;;;;;;;7.00;1.98;;;;;;;28.41;29.74;102206.53;4910428;28;124336;-67
2022/06/16 12:08:05;;;;;;;3.80;2.08;;;;;;;28.39;29.99;102203.97;4912126;28;115109;-66
2022/06/16 12:10:47;;;;;;;3.72;1.67;;;;;;;28.39;29.42;102209.41;4911745;28;113757;-66
2022/06/16 12:13:44;;;;;;;2.92;2.00;;;;;;;28.31;29.18;102202.00;4880314;28;124833;-67
2022/06/16 12:16:20;;;;;;;2.53;1.50;;;;;;;28.32;29.78;102202.84;4906110;28;123805;-67
2022/06/16 12:19:16;;;;;;;3.28;1.60;;;;;;;28.42;30.97;102200.91;4902243;28;115034;-67